Time;durP1;ratioP1;P1;durP2;ratioP2;P2;SDS_P1;SDS_P2;PMS_P1;PMS_P2;Temp;Humidity;BMP_temperature;BMP_pressure;BME280_temperature;BME280_humidity;BME280_pressure;Samples;Min_cycle;Max_cycle;Signal;HPM_P1;HPM_P2
2021/06/23 00:00:14;;;;;;;;;29.50;26.50;;;;;27.01;57.28;98551.69;6223509;28;126154;-64
2021/06/23 00:03:17;;;;;;;;;31.75;28.75;;;;;26.99;57.35;98556.75;6194721;28;126118;-63
2021/06/23 00:06:20;;;;;;;;;31.00;28.00;;;;;26.97;57.43;98562.63;6214139;28;126154;-64
2021/06/23 00:09:24;;;;;;;;;32.00;27.00;;;;;26.84;57.25;98544.28;6207850;28;126152;-64
2021/06/23 00:12:29;;;;;;;;;27.80;26.00;;;;;26.97;57.14;98567.34;6205976;28;124494;-64
2021/06/23 00:15:34;;;;;;;;;29.75;27.25;;;;;26.94;57.03;98579.88;6209055;28;125978;-64
2021/06/23 00:18:38;;;;;;;;;27.00;24.80;;;;;26.90;57.38;98570.66;6209825;28;124561;-64
2021/06/23 00:21:41;;;;;;;;;33.00;28.50;;;;;26.92;57.57;98573.91;6198363;28;124812;-64
2021/06/23 00:24:44;;;;;;;;;29.40;27.00;;;;;26.88;57.57;98577.69;6198774;28;125337;-64
2021/06/23 00:27:48;;;;;;;;;27.25;26.25;;;;;26.91;57.47;98568.69;6212854;28;126851;-64
2021/06/23 00:30:52;;;;;;;;;27.80;26.80;;;;;26.96;57.30;98572.06;6195727;28;125874;-64
2021/06/23 00:33:58;;;;;;;;;29.60;27.00;;;;;26.90;57.40;98570.66;6207095;28;126052;-64
2021/06/23 00:37:01;;;;;;;;;29.00;27.00;;;;;26.99;57.72;98579.69;6194271;28;125114;-64
2021/06/23 00:40:06;;;;;;;;;31.75;28.00;;;;;27.05;57.31;98586.66;6213222;28;125956;-64
2021/06/23 00:43:12;;;;;;;;;29.00;27.00;;;;;27.08;57.47;98593.44;6179049;28;124959;-64
2021/06/23 00:46:18;;;;;;;;;30.50;27.50;;;;;27.10;57.29;98594.75;6213121;28;124585;-64
2021/06/23 00:49:36;;;;;;;;;35.80;29.80;;;;;27.15;56.78;98602.84;6208908;28;125421;-64
2021/06/23 00:52:49;;;;;;;;;29.20;27.00;;;;;27.17;57.05;98613.59;6205854;28;125800;-64
2021/06/23 00:56:07;;;;;;;;;31.00;27.60;;;;;27.10;57.25;98610.53;6209494;28;126605;-64
2021/06/23 00:59:11;;;;;;;;;32.60;28.00;;;;;27.04;57.35;98606.34;6211288;28;124860;-64
2021/06/23 01:02:17;;;;;;;;;30.40;28.00;;;;;27.05;57.51;98606.00;6187379;28;124232;-64
2021/06/23 01:05:21;;;;;;;;;28.20;26.60;;;;;27.05;57.40;98619.03;6185222;28;126285;-64
2021/06/23 01:08:25;;;;;;;;;30.20;28.80;;;;;27.15;57.42;98619.44;6220667;28;125728;-64
2021/06/23 01:11:29;;;;;;;;;31.00;28.50;;;;;27.15;57.28;98626.94;6213401;28;125614;-64
2021/06/23 01:14:36;;;;;;;;;27.60;25.60;;;;;27.05;57.40;98624.56;6210157;28;127690;-64
2021/06/23 01:17:41;;;;;;;;;31.00;28.40;;;;;27.03;57.51;98630.44;6219092;28;124670;-64
2021/06/23 01:20:47;;;;;;;;;29.00;27.50;;;;;27.07;57.53;98627.81;6223619;28;125947;-64
2021/06/23 01:23:54;;;;;;;;;31.80;30.00;;;;;27.05;57.49;98627.34;6215642;28;124813;-64
2021/06/23 01:26:57;;;;;;;;;30.60;27.40;;;;;27.08;57.67;98627.47;6220191;28;126170;-64
2021/06/23 01:30:01;;;;;;;;;32.00;28.00;;;;;27.12;57.62;98630.41;6227660;28;127038;-64
2021/06/23 01:33:32;;;;;;;;;33.00;30.00;;;;;27.19;57.29;98635.38;6233219;28;124952;-64
2021/06/23 01:36:35;;;;;;;;;32.50;29.25;;;;;27.22;57.60;98646.56;6218972;27;125953;-64
2021/06/23 01:39:40;;;;;;;;;35.60;30.80;;;;;27.21;57.30;98650.50;6219284;28;126879;-64
2021/06/23 01:42:44;;;;;;;;;32.50;30.00;;;;;27.03;57.57;98618.56;6202665;28;124813;-64
2021/06/23 01:45:48;;;;;;;;;32.00;30.00;;;;;27.24;57.20;98658.13;6226349;28;126193;-64
2021/06/23 01:48:52;;;;;;;;;33.40;29.40;;;;;27.32;57.09;98664.78;6209162;28;126933;-64
2021/06/23 01:51:56;;;;;;;;;32.00;30.00;;;;;27.28;57.19;98655.50;6215636;28;125943;-64
2021/06/23 01:55:00;;;;;;;;;37.40;30.00;;;;;27.36;57.21;98665.72;6230637;28;124274;-64
2021/06/23 01:58:06;;;;;;;;;32.40;28.00;;;;;27.39;56.99;98668.59;6236816;28;124784;-64
2021/06/23 02:01:31;;;;;;;;;31.60;29.00;;;;;27.43;57.09;98665.97;6213755;28;125963;-64
2021/06/23 02:04:49;;;;;;;;;31.00;29.00;;;;;27.15;56.88;98618.63;6218317;28;124891;-64
2021/06/23 02:08:07;;;;;;;;;34.75;30.00;;;;;27.49;56.77;98656.34;6227511;28;124596;-64
2021/06/23 02:11:37;;;;;;;;;32.60;30.00;;;;;27.52;56.55;98662.00;6212991;28;127121;-64
2021/06/23 02:14:50;;;;;;;;;29.00;27.00;;;;;27.57;56.90;98677.59;6218310;28;124836;-64
2021/06/23 02:18:21;;;;;;;;;33.25;30.00;;;;;27.60;56.71;98676.13;6217274;28;125201;-64
2021/06/23 02:21:44;;;;;;;;;36.00;30.75;;;;;27.62;56.62;98674.63;6218699;28;126822;-63
2021/06/23 02:24:50;;;;;;;;;32.00;30.00;;;;;27.65;56.67;98678.69;6209523;28;125465;-64
2021/06/23 02:28:03;;;;;;;;;38.00;30.40;;;;;27.64;56.37;98683.44;6216966;28;125965;-63
2021/06/23 02:31:09;;;;;;;;;35.60;30.00;;;;;27.65;56.61;98692.56;6217943;28;126341;-64
2021/06/23 02:34:21;;;;;;;;;34.40;31.00;;;;;27.65;56.47;98687.81;6217538;28;126726;-64
2021/06/23 02:37:44;;;;;;;;;34.00;29.80;;;;;27.65;56.19;98687.81;6216856;28;124778;-64
2021/06/23 02:40:50;;;;;;;;;34.00;30.00;;;;;27.62;56.81;98691.25;6208035;28;124775;-64
2021/06/23 02:43:55;;;;;;;;;36.75;30.00;;;;;27.64;56.78;98690.91;6219639;28;126353;-64
2021/06/23 02:47:06;;;;;;;;;36.75;30.75;;;;;27.67;56.59;98687.47;6217064;28;124776;-64
2021/06/23 02:50:21;;;;;;;;;37.00;32.00;;;;;27.68;56.57;98698.22;6217497;28;126021;-64
2021/06/23 02:53:50;;;;;;;;;35.00;30.40;;;;;27.58;56.73;98687.53;6205827;28;125451;-64
2021/06/23 02:56:55;;;;;;;;;36.60;30.60;;;;;27.48;56.80;98683.19;6216629;28;124996;-64
2021/06/23 03:00:02;;;;;;;;;38.20;31.00;;;;;27.56;57.15;98704.47;6215923;28;126371;-64
2021/06/23 03:03:09;;;;;;;;;34.50;30.75;;;;;27.49;56.98;98701.47;6216954;28;126185;-64
2021/06/23 03:06:17;;;;;;;;;34.25;30.00;;;;;27.39;57.35;98706.56;6235008;28;127197;-64
2021/06/23 03:09:22;;;;;;;;;40.40;34.20;;;;;27.41;57.03;98710.63;6211198;28;127937;-64
2021/06/23 03:12:45;;;;;;;;;36.00;30.00;;;;;27.38;57.45;98711.28;6233838;28;124761;-64
2021/06/23 03:16:02;;;;;;;;;36.25;31.75;;;;;27.35;57.61;98709.19;6234606;28;125790;-64
2021/06/23 03:19:14;;;;;;;;;36.00;30.50;;;;;27.36;57.46;98712.78;6208948;28;126646;-64
2021/06/23 03:22:20;;;;;;;;;36.00;32.00;;;;;27.41;57.48;98718.94;6226108;28;124683;-64
2021/06/23 03:25:25;;;;;;;;;33.00;30.00;;;;;27.42;57.23;98717.75;6209420;28;126035;-64
2021/06/23 03:28:29;;;;;;;;;33.00;30.00;;;;;27.38;57.43;98722.34;6229419;28;126164;-64
2021/06/23 03:31:35;;;;;;;;;36.50;32.00;;;;;27.36;57.77;98730.19;6216207;28;124116;-64
2021/06/23 03:34:40;;;;;;;;;34.00;30.00;;;;;27.39;57.31;98732.28;6234597;28;126135;-64
2021/06/23 03:37:44;;;;;;;;;32.20;30.00;;;;;27.41;57.48;98737.50;6217290;28;127104;-64
2021/06/23 03:40:48;;;;;;;;;37.40;32.00;;;;;27.43;57.74;98732.41;6215572;28;126580;-64
2021/06/23 03:43:52;;;;;;;;;35.20;30.00;;;;;27.42;57.74;98728.81;6234578;28;123703;-64
2021/06/23 03:47:01;;;;;;;;;37.20;30.00;;;;;27.40;57.79;98733.91;6212314;28;125189;-64
2021/06/23 03:50:08;;;;;;;;;38.60;31.60;;;;;27.35;57.72;98734.09;6214373;28;124767;-64
2021/06/23 03:53:11;;;;;;;;;36.20;32.00;;;;;27.35;57.73;98733.28;6215901;28;126512;-64
2021/06/23 03:56:14;;;;;;;;;37.00;30.00;;;;;27.37;58.03;98733.75;6202780;28;124700;-64
2021/06/23 03:59:18;;;;;;;;;36.50;31.00;;;;;27.41;57.98;98738.31;6227544;27;124747;-64
2021/06/23 04:02:23;;;;;;;;;40.00;33.00;;;;;27.43;57.88;98746.25;6219510;28;126083;-63
2021/06/23 04:05:28;;;;;;;;;39.50;33.00;;;;;27.46;57.56;98749.19;6229187;28;124861;-64
2021/06/23 04:08:31;;;;;;;;;38.00;30.50;;;;;27.49;57.49;98750.50;6226367;28;126021;-64
2021/06/23 04:11:34;;;;;;;;;36.60;32.60;;;;;27.40;57.43;98746.94;6227749;28;126236;-64
2021/06/23 04:14:39;;;;;;;;;35.40;32.00;;;;;27.45;57.48;98755.88;6231502;27;124157;-64
2021/06/23 04:17:45;;;;;;;;;40.60;33.40;;;;;27.46;57.83;98751.94;6218404;28;126931;-64
2021/06/23 04:20:52;;;;;;;;;37.00;32.00;;;;;27.34;57.65;98743.56;6231843;28;124781;-64
2021/06/23 04:23:55;;;;;;;;;38.00;31.80;;;;;27.37;57.78;98765.00;6216926;28;126030;-64
2021/06/23 04:26:59;;;;;;;;;40.75;33.75;;;;;27.37;58.02;98766.97;6234325;28;125593;-63
2021/06/23 04:30:10;;;;;;;;;38.75;31.25;;;;;27.32;57.96;98775.50;6213017;28;126773;-64
2021/06/23 04:33:15;;;;;;;;;39.00;33.00;;;;;27.39;57.67;98779.34;6227196;28;124305;-64
2021/06/23 04:36:22;;;;;;;;;38.75;33.00;;;;;27.44;57.72;98775.56;6223096;27;124963;-64
2021/06/23 04:39:26;;;;;;;;;42.67;34.67;;;;;27.51;57.85;98779.44;6218693;28;126100;-64
2021/06/23 04:42:45;;;;;;;;;38.40;33.00;;;;;27.53;57.54;98782.72;6216094;27;125066;-64
2021/06/23 04:45:48;;;;;;;;;42.20;35.00;;;;;27.47;57.73;98778.47;6215474;27;124916;-64
2021/06/23 04:48:55;;;;;;;;;42.40;33.00;;;;;27.41;57.53;98773.47;6219303;28;126141;-63
2021/06/23 04:52:21;;;;;;;;;41.40;34.00;;;;;27.50;57.63;98777.03;6233266;28;125010;-64
2021/06/23 04:55:25;;;;;;;;;39.80;32.40;;;;;27.52;57.40;98778.31;6218375;28;125990;-64
2021/06/23 04:58:36;;;;;;;;;38.00;33.00;;;;;27.58;57.08;98776.16;6211398;28;126319;-64
2021/06/23 05:01:44;;;;;;;;;37.75;32.00;;;;;27.62;57.37;98777.09;6225466;28;126073;-64
2021/06/23 05:04:49;;;;;;;;;43.75;35.00;;;;;27.58;57.05;98776.16;6233596;28;123970;-64
2021/06/23 05:07:53;;;;;;;;;40.25;33.00;;;;;27.63;57.49;98777.91;6214840;28;125823;-64
2021/06/23 05:10:57;;;;;;;;;38.80;33.00;;;;;27.59;57.60;98772.25;6226868;28;127081;-63
2021/06/23 05:14:01;;;;;;;;;41.00;33.00;;;;;27.60;57.75;98771.09;6208742;28;123688;-64
2021/06/23 05:17:05;;;;;;;;;41.80;33.00;;;;;27.56;57.29;98770.94;6230061;28;125158;-64
2021/06/23 05:20:12;;;;;;;;;40.00;33.00;;;;;27.61;57.39;98778.28;6227132;28;125608;-64
2021/06/23 05:23:15;;;;;;;;;38.00;32.00;;;;;27.64;57.46;98774.00;6222493;28;125751;-64
2021/06/23 05:26:18;;;;;;;;;40.00;33.60;;;;;27.69;56.99;98782.94;6220165;27;124716;-63
2021/06/23 05:29:22;;;;;;;;;37.00;32.00;;;;;27.74;57.27;98793.81;6216610;28;126319;-64
2021/06/23 05:32:25;;;;;;;;;42.00;32.60;;;;;27.79;57.11;98796.38;6224667;28;126098;-63
2021/06/23 05:35:29;;;;;;;;;39.00;33.00;;;;;27.80;57.02;98791.66;6213103;28;126302;-63
2021/06/23 05:38:32;;;;;;;;;35.60;32.00;;;;;27.77;56.78;98789.53;6224411;28;124581;-63
2021/06/23 05:41:36;;;;;;;;;41.40;33.00;;;;;27.78;57.13;98800.31;6218817;28;127213;-63
2021/06/23 05:44:39;;;;;;;;;36.60;32.00;;;;;27.83;57.20;98802.06;6217045;27;125144;-63
2021/06/23 05:47:42;;;;;;;;;36.00;31.80;;;;;27.87;56.73;98803.81;6229723;27;125331;-64
2021/06/23 05:50:47;;;;;;;;;39.20;32.40;;;;;27.86;56.78;98806.91;6214662;28;125245;-63
2021/06/23 05:53:50;;;;;;;;;41.60;32.60;;;;;27.87;56.81;98809.34;6228502;28;124580;-63
2021/06/23 05:56:53;;;;;;;;;42.00;33.00;;;;;27.84;56.70;98818.34;6220377;28;125930;-64
2021/06/23 05:59:56;;;;;;;;;35.40;31.60;;;;;27.89;56.89;98825.66;6211393;28;125958;-63
2021/06/23 06:03:00;;;;;;;;;34.00;32.00;;;;;27.88;56.95;98824.03;6231831;28;126362;-63
2021/06/23 06:06:05;;;;;;;;;43.00;33.00;;;;;27.88;57.17;98829.56;6217350;28;127213;-64
2021/06/23 06:09:08;;;;;;;;;36.60;31.00;;;;;27.90;57.14;98830.88;6214668;28;126039;-63
2021/06/23 06:12:12;;;;;;;;;35.40;31.40;;;;;27.89;57.15;98847.81;6218614;28;126228;-64
2021/06/23 06:15:16;;;;;;;;;35.00;31.00;;;;;27.92;57.16;98853.50;6218712;28;123898;-63
2021/06/23 06:18:20;;;;;;;;;35.00;30.00;;;;;27.96;57.09;98856.38;6227336;28;126109;-63
2021/06/23 06:21:25;;;;;;;;;33.00;30.75;;;;;27.96;57.08;98854.44;6225120;28;126466;-63
2021/06/23 06:24:28;;;;;;;;;32.60;30.00;;;;;27.97;57.21;98858.03;6231421;27;124974;-63
2021/06/23 06:27:31;;;;;;;;;35.50;30.75;;;;;28.00;56.93;98860.13;6225239;28;125025;-63
2021/06/23 06:30:34;;;;;;;;;36.00;32.00;;;;;28.01;56.75;98868.09;6233632;28;126553;-63
2021/06/23 06:33:38;;;;;;;;;33.00;30.60;;;;;28.07;56.87;98865.13;6234430;28;124911;-63
2021/06/23 06:36:43;;;;;;;;;38.00;32.00;;;;;28.11;56.91;98874.38;6229686;27;126455;-63
2021/06/23 06:39:46;;;;;;;;;38.40;32.40;;;;;28.10;57.09;98881.88;6228396;28;126427;-63
2021/06/23 06:42:50;;;;;;;;;35.00;30.00;;;;;28.06;56.67;98882.91;6223995;27;125871;-63
2021/06/23 06:45:54;;;;;;;;;35.00;30.00;;;;;28.11;56.75;98883.53;6223897;28;126022;-63
2021/06/23 06:48:58;;;;;;;;;33.50;29.50;;;;;28.11;56.74;98883.53;6229960;28;125247;-63
2021/06/23 06:52:08;;;;;;;;;32.60;29.60;;;;;28.01;56.42;98864.50;6214866;28;126048;-63
2021/06/23 06:55:12;;;;;;;;;36.40;28.00;;;;;28.16;56.70;98888.06;6216868;28;125538;-64
2021/06/23 06:58:15;;;;;;;;;31.80;29.80;;;;;28.19;56.58;98896.53;6231927;27;124837;-63
2021/06/23 07:01:19;;;;;;;;;38.20;32.00;;;;;28.21;56.44;98887.88;6228166;28;125668;-63
2021/06/23 07:04:22;;;;;;;;;35.00;31.00;;;;;28.24;57.13;98890.81;6216790;28;126314;-63
2021/06/23 07:07:26;;;;;;;;;32.00;29.40;;;;;28.29;56.71;98893.38;6224558;28;126341;-63
2021/06/23 07:10:30;;;;;;;;;33.00;28.00;;;;;28.31;57.17;98901.34;6236625;27;127018;-63
2021/06/23 07:13:38;;;;;;;;;32.00;28.40;;;;;28.33;56.54;98901.81;6234237;28;125048;-63
2021/06/23 07:16:41;;;;;;;;;32.50;29.00;;;;;28.28;56.95;98896.47;6233830;28;125232;-63
2021/06/23 07:19:44;;;;;;;;;30.80;27.80;;;;;28.30;56.37;98900.53;6234434;28;124845;-63
2021/06/23 07:22:49;;;;;;;;;29.00;26.00;;;;;28.32;55.94;98900.19;6234973;28;125783;-63
2021/06/23 07:25:52;;;;;;;;;34.80;29.20;;;;;28.31;55.99;98904.91;6199764;28;124857;-63
2021/06/23 07:29:00;;;;;;;;;32.00;28.00;;;;;28.30;56.02;98906.06;6232616;27;126102;-63
2021/06/23 07:32:06;;;;;;;;;28.60;26.00;;;;;28.32;55.64;98898.22;6226356;27;124738;-63
2021/06/23 07:38:29;;;;;;;;;32.50;29.00;;;;;28.33;55.62;98896.28;6233835;28;126170;-63
2021/06/23 07:41:32;;;;;;;;;33.60;28.60;;;;;28.20;55.88;98883.50;6222457;28;124688;-63
2021/06/23 07:44:39;;;;;;;;;30.50;27.50;;;;;28.34;55.92;98900.69;6219833;28;126152;-63
2021/06/23 07:47:43;;;;;;;;;31.20;27.80;;;;;28.36;55.48;98901.94;6225383;28;125275;-63
2021/06/23 07:50:51;;;;;;;;;34.00;29.00;;;;;28.33;55.18;98899.84;6220646;28;124737;-63
2021/06/23 08:10:53;;;;;;;;;33.00;30.00;;;;;28.53;55.41;98908.50;6189186;28;125365;-63
2021/06/23 08:13:56;;;;;;;;;32.00;29.00;;;;;28.58;54.93;98908.31;6189273;28;125983;-61
2021/06/23 08:16:59;;;;;;;;;34.40;30.00;;;;;28.63;55.29;98917.22;6207510;28;125882;-62
2021/06/23 08:20:03;;;;;;;;;31.60;28.00;;;;;28.67;55.13;98912.63;6198176;28;126488;-62
2021/06/23 08:23:07;;;;;;;;;32.60;27.60;;;;;28.69;54.45;98915.03;6203276;28;124575;-61
2021/06/23 08:26:12;;;;;;;;;32.60;29.60;;;;;28.72;54.70;98918.00;6199244;28;125271;-62
2021/06/23 08:29:15;;;;;;;;;35.00;30.00;;;;;28.78;54.74;98918.59;6200790;28;127781;-62
2021/06/23 08:32:18;;;;;;;;;32.00;27.00;;;;;28.69;54.62;98909.50;6198734;28;126309;-61
2021/06/23 08:35:22;;;;;;;;;33.80;29.40;;;;;28.85;54.13;98924.41;6184753;28;125773;-61
2021/06/23 08:38:26;;;;;;;;;36.80;29.20;;;;;28.89;54.04;98927.28;6185507;28;126240;-63
2021/06/23 08:41:30;;;;;;;;;32.40;29.00;;;;;28.91;53.73;98934.13;6204836;28;126252;-62
2021/06/23 08:44:33;;;;;;;;;32.00;28.80;;;;;28.95;53.24;98935.06;6200682;28;124914;-62
2021/06/23 08:47:39;;;;;;;;;32.00;27.00;;;;;28.98;52.73;98939.16;6206975;28;124883;-62
2021/06/23 08:50:43;;;;;;;;;30.40;27.40;;;;;29.04;52.89;98949.66;6209196;28;124896;-63
2021/06/23 08:53:46;;;;;;;;;37.50;32.00;;;;;29.14;53.29;98949.25;6202135;28;124953;-62
2021/06/23 08:56:51;;;;;;;;;31.60;26.60;;;;;29.06;52.20;98929.91;6205898;28;125170;-62
2021/06/23 08:59:54;;;;;;;;;32.00;28.00;;;;;29.28;52.24;98940.59;6208410;28;126067;-62
2021/06/23 09:03:01;;;;;;;;;30.60;28.00;;;;;29.36;52.18;98939.75;6210393;28;124796;-62
2021/06/23 09:06:05;;;;;;;;;34.50;29.00;;;;;29.43;51.92;98947.47;6216771;28;125193;-62
2021/06/23 09:09:24;;;;;;;;;29.00;26.60;;;;;29.60;51.58;98956.44;6204255;28;126270;-62
2021/06/23 09:12:28;;;;;;;;;32.00;29.00;;;;;29.62;50.69;98958.84;6217104;28;126398;-62
2021/06/23 09:15:40;;;;;;;;;32.00;27.80;;;;;29.67;50.95;98965.00;6205308;28;125732;-61
2021/06/23 09:18:44;;;;;;;;;32.00;28.00;;;;;29.67;50.99;98967.78;6227316;28;125648;-61
2021/06/23 09:21:47;;;;;;;;;31.40;28.40;;;;;29.74;50.49;98960.84;6192555;28;125012;-62
2021/06/23 09:24:50;;;;;;;;;30.20;26.00;;;;;29.77;50.37;98955.41;6217007;28;124994;-62
2021/06/23 09:27:56;;;;;;;;;29.80;26.60;;;;;29.98;50.08;98955.31;6215234;28;125393;-63
2021/06/23 09:31:00;;;;;;;;;32.75;29.00;;;;;30.13;49.28;98958.22;6229207;28;123970;-63
2021/06/23 09:34:21;;;;;;;;;27.00;26.00;;;;;30.36;49.09;98961.28;6217045;28;126135;-63
2021/06/23 09:37:27;;;;;;;;;29.80;27.00;;;;;30.67;48.48;98952.34;6211825;28;128717;-62
2021/06/23 09:40:31;;;;;;;;;28.50;26.50;;;;;30.95;48.58;98955.13;6215599;28;124391;-61
2021/06/23 09:43:40;;;;;;;;;30.00;27.00;;;;;31.09;47.73;98960.31;6220598;28;123890;-63
2021/06/23 09:46:46;;;;;;;;;31.00;27.00;;;;;31.42;47.52;98960.03;6215322;28;124516;-61
2021/06/23 09:49:53;;;;;;;;;27.60;26.60;;;;;31.53;46.04;98953.53;6215373;28;125954;-61
2021/06/23 09:52:58;;;;;;;;;29.00;27.40;;;;;31.42;45.72;98960.84;6213774;28;128146;-61
2021/06/23 09:56:02;;;;;;;;;31.60;28.60;;;;;31.41;46.49;98967.56;6214310;28;125682;-65
2021/06/23 09:59:07;;;;;;;;;31.50;28.00;;;;;31.47;46.33;98959.75;6213340;28;124663;-63
2021/06/23 10:02:26;;;;;;;;;24.40;23.40;;;;;31.53;46.85;98956.34;6206488;28;125583;-62
2021/06/23 10:05:31;;;;;;;;;32.00;27.00;;;;;31.63;46.88;98963.38;6199793;28;126215;-63
2021/06/23 10:08:34;;;;;;;;;28.20;27.20;;;;;31.69;46.91;98965.56;6224636;27;126027;-63
2021/06/23 10:11:38;;;;;;;;;30.20;26.20;;;;;31.61;45.47;98969.34;6223423;28;124996;-63
2021/06/23 10:14:45;;;;;;;;;32.00;27.00;;;;;31.54;45.56;98971.06;6229374;28;124841;-63
2021/06/23 10:17:49;;;;;;;;;30.00;28.00;;;;;31.58;46.51;98961.66;6218828;28;126269;-63
2021/06/23 10:20:55;;;;;;;;;29.50;27.00;;;;;31.65;46.26;98961.88;6228087;28;125923;-63
2021/06/23 10:23:59;;;;;;;;;29.80;26.00;;;;;31.74;45.83;98967.25;6228587;28;125812;-64
2021/06/23 10:27:06;;;;;;;;;29.40;26.40;;;;;31.82;46.31;98958.69;6230332;28;124838;-63
2021/06/23 10:30:13;;;;;;;;;27.00;25.00;;;;;31.84;46.22;98958.34;6212833;28;126048;-63
2021/06/23 10:33:17;;;;;;;;;31.60;26.60;;;;;31.88;45.81;98953.66;6228367;28;124973;-65
2021/06/23 10:36:24;;;;;;;;;28.00;26.00;;;;;31.88;45.54;98953.66;6230616;28;127144;-65
2021/06/23 10:39:30;;;;;;;;;29.00;26.00;;;;;31.92;45.68;98960.13;6231255;28;124562;-64
2021/06/23 10:42:34;;;;;;;;;27.00;25.00;;;;;31.90;44.99;98953.31;6214356;28;125154;-67
2021/06/23 10:45:45;;;;;;;;;28.40;26.00;;;;;31.85;45.64;98959.16;6227189;28;125102;-65
2021/06/23 10:48:55;;;;;;;;;28.50;26.75;;;;;31.88;46.06;98962.03;6222103;28;124611;-66
2021/06/23 10:52:34;;;;;;;;;33.00;30.00;;;;;31.93;45.92;98967.34;6231974;28;126303;-67
2021/06/23 10:55:40;;;;;;;;;32.25;30.00;;;;;32.04;45.46;98962.03;6197148;28;97004;-64
2021/06/23 10:58:44;;;;;;;;;34.40;30.00;;;;;32.02;45.12;98955.97;6195909;28;126222;-66
2021/06/23 11:02:11;;;;;;;;;35.00;30.67;;;;;32.11;45.15;98949.06;6198116;28;126052;-67
2021/06/23 11:05:18;;;;;;;;;29.80;27.80;;;;;32.21;45.21;98958.84;6206203;28;125472;-64
2021/06/23 11:08:37;;;;;;;;;32.40;30.00;;;;;32.24;45.31;98945.00;6190631;28;126198;-63
2021/06/23 11:11:41;;;;;;;;;38.20;31.20;;;;;32.30;44.83;98955.88;6206765;28;126392;-62
2021/06/23 11:15:10;;;;;;;;;34.00;29.00;;;;;32.26;44.16;98958.56;6200098;28;124827;-61
2021/06/23 11:18:33;;;;;;;;;37.60;31.80;;;;;32.30;44.65;98953.09;6193931;28;126145;-62
2021/06/23 11:21:37;;;;;;;;;35.20;31.00;;;;;32.32;44.69;98948.75;6193581;28;125340;-62
2021/06/23 11:24:40;;;;;;;;;34.00;30.00;;;;;32.39;44.41;98951.72;6196983;28;126302;-61
2021/06/23 11:27:44;;;;;;;;;33.60;30.00;;;;;32.48;44.74;98955.13;6205834;28;125950;-62
2021/06/23 11:31:03;;;;;;;;;35.00;30.00;;;;;32.50;43.90;98951.97;6207340;28;126818;-61
2021/06/23 11:34:09;;;;;;;;;33.00;28.00;;;;;32.41;43.65;98931.81;6192811;28;125312;-61
2021/06/23 11:37:15;;;;;;;;;30.67;27.67;;;;;32.54;44.50;98950.06;6206071;28;126758;-61
2021/06/23 11:40:21;;;;;;;;;33.00;29.20;;;;;32.51;44.17;98954.38;6206156;28;125527;-63
2021/06/23 11:43:26;;;;;;;;;33.50;30.00;;;;;32.62;44.19;98946.22;6204866;28;124070;-61
2021/06/23 11:46:30;;;;;;;;;36.40;30.00;;;;;31.87;43.67;98823.78;6206201;28;125626;-60
2021/06/23 11:49:44;;;;;;;;;32.20;29.80;;;;;32.91;43.40;98944.88;6197324;28;125877;-60
2021/06/23 11:52:47;;;;;;;;;30.00;28.75;;;;;33.08;42.74;98942.44;6193364;28;126150;-60
2021/06/23 11:55:52;;;;;;;;;30.20;28.80;;;;;33.22;42.71;98955.09;6196667;28;125979;-60
2021/06/23 11:58:56;;;;;;;;;33.20;29.00;;;;;33.40;42.71;98950.63;6201889;28;125361;-61
2021/06/23 12:01:59;;;;;;;;;32.60;29.60;;;;;33.43;40.90;98936.72;6191283;28;125081;-61
2021/06/23 12:05:05;;;;;;;;;35.00;30.00;;;;;33.49;41.66;98945.59;6206346;28;124518;-60
2021/06/23 12:08:08;;;;;;;;;34.00;30.00;;;;;33.57;41.60;98943.75;6205922;28;124799;-61
2021/06/23 12:11:11;;;;;;;;;32.33;29.67;;;;;33.56;41.79;98951.34;6206498;28;126077;-62
2021/06/23 12:14:14;;;;;;;;;32.25;29.25;;;;;33.41;41.62;98941.06;6206326;28;126217;-61
2021/06/23 12:17:18;;;;;;;;;29.00;26.75;;;;;33.33;41.81;98956.09;6199696;28;125175;-61
2021/06/23 12:20:23;;;;;;;;;31.00;29.00;;;;;33.14;41.81;98951.31;6206796;28;126035;-61
2021/06/23 12:23:26;;;;;;;;;33.50;30.00;;;;;33.06;42.11;98952.34;6207567;28;125796;-61
2021/06/23 12:26:30;;;;;;;;;31.40;29.00;;;;;32.93;42.27;98954.50;6209793;28;126021;-63
2021/06/23 12:29:35;;;;;;;;;30.60;28.00;;;;;32.74;42.47;98957.31;6212699;28;126377;-62
2021/06/23 12:32:38;;;;;;;;;31.00;27.40;;;;;32.70;42.52;98952.78;6212153;28;125938;-63
2021/06/23 12:35:44;;;;;;;;;31.75;28.00;;;;;32.74;43.31;98948.94;6190840;28;126002;-62
2021/06/23 12:38:47;;;;;;;;;34.40;28.60;;;;;32.70;43.23;98956.41;6209246;28;124792;-62
2021/06/23 12:41:51;;;;;;;;;31.40;28.00;;;;;32.58;43.08;98954.53;6208154;28;127740;-62
2021/06/23 12:44:54;;;;;;;;;31.00;28.00;;;;;32.60;43.22;98954.16;6209149;28;127254;-63
2021/06/23 12:47:58;;;;;;;;;31.75;29.00;;;;;32.64;42.59;98955.91;6209337;28;126545;-63
2021/06/23 12:51:05;;;;;;;;;29.50;26.75;;;;;32.66;42.50;98947.13;6189815;28;126841;-63
2021/06/23 12:54:09;;;;;;;;;32.20;30.00;;;;;32.72;42.31;98942.88;6205400;28;126433;-63
2021/06/23 12:57:25;;;;;;;;;30.00;28.50;;;;;32.86;42.17;98943.19;6209107;28;126626;-62
2021/06/23 13:00:28;;;;;;;;;31.80;29.40;;;;;33.01;42.02;98939.50;6190444;28;124544;-63
2021/06/23 13:03:31;;;;;;;;;28.50;25.50;;;;;33.08;41.83;98933.25;6208314;28;124273;-64
2021/06/23 13:06:36;;;;;;;;;31.60;27.20;;;;;33.18;41.59;98934.66;6204426;28;126102;-61
2021/06/23 13:09:39;;;;;;;;;32.20;28.20;;;;;33.27;41.73;98933.25;6207885;28;124800;-64
2021/06/23 13:12:44;;;;;;;;;31.50;28.50;;;;;33.42;41.61;98928.72;6207883;28;123799;-64
2021/06/23 13:15:47;;;;;;;;;33.00;29.00;;;;;33.57;41.38;98933.38;6189534;28;126039;-64
2021/06/23 13:18:52;;;;;;;;;30.25;28.00;;;;;33.70;40.79;98931.22;6186845;28;125962;-64
2021/06/23 13:21:57;;;;;;;;;32.00;28.80;;;;;33.71;40.99;98930.84;6191066;28;126370;-65
2021/06/23 13:25:00;;;;;;;;;33.40;30.00;;;;;33.74;40.29;98932.88;6209750;28;126578;-64
2021/06/23 13:28:04;;;;;;;;;31.25;29.25;;;;;33.76;39.82;98938.13;6224943;28;126262;-64
2021/06/23 13:31:07;;;;;;;;;32.00;30.00;;;;;33.71;39.91;98939.25;6208713;28;124960;-65
2021/06/23 13:34:11;;;;;;;;;32.60;29.00;;;;;33.73;39.85;98934.06;6209944;28;126106;-65
2021/06/23 13:37:15;;;;;;;;;29.00;27.60;;;;;33.71;40.02;98932.84;6207897;28;126938;-65
2021/06/23 13:40:21;;;;;;;;;33.00;30.60;;;;;33.73;40.11;98938.84;6207079;28;125300;-64
2021/06/23 13:43:25;;;;;;;;;33.50;30.00;;;;;33.73;40.29;98936.06;6206809;28;126426;-64
2021/06/23 13:46:28;;;;;;;;;32.80;29.80;;;;;33.79;40.59;98937.38;6205596;28;124073;-64
2021/06/23 13:49:32;;;;;;;;;33.60;30.00;;;;;33.83;40.02;98941.03;6208046;28;126004;-64
2021/06/23 13:52:41;;;;;;;;;31.60;27.60;;;;;33.77;39.88;98920.94;6209417;28;127499;-64
2021/06/23 13:55:44;;;;;;;;;34.00;30.80;;;;;33.93;39.77;98945.97;6211133;28;126368;-64
2021/06/23 13:58:48;;;;;;;;;34.60;31.60;;;;;34.05;40.27;98930.97;6210836;28;125643;-64
2021/06/23 14:01:51;;;;;;;;;32.60;30.00;;;;;34.10;39.79;98909.09;6210386;28;124070;-64
2021/06/23 14:04:54;;;;;;;;;34.25;30.00;;;;;34.36;39.65;98925.88;6210530;28;126591;-64
2021/06/23 14:08:01;;;;;;;;;32.60;29.60;;;;;34.32;38.89;98913.00;6208198;28;126416;-64
2021/06/23 14:11:04;;;;;;;;;31.60;29.60;;;;;34.06;39.06;98891.44;6193061;28;126449;-64
2021/06/23 14:14:08;;;;;;;;;31.60;28.00;;;;;34.38;39.16;98914.31;6208242;28;125103;-64
2021/06/23 14:17:11;;;;;;;;;32.00;30.00;;;;;34.52;39.06;98908.09;6192497;28;126217;-64
2021/06/23 14:20:18;;;;;;;;;39.00;33.00;;;;;34.41;38.75;98881.94;6208764;28;126910;-64
2021/06/23 14:23:22;;;;;;;;;31.00;30.00;;;;;34.61;38.85;98915.00;6195188;28;124951;-64
2021/06/23 14:26:26;;;;;;;;;34.40;31.00;;;;;34.58;37.88;98917.78;6205550;28;126118;-64